createdAt,value
2019-03-29T00:00:21.034Z,74.61
2019-03-29T00:01:21.049Z,74.13
2019-03-29T00:03:13.963Z,74.61
2019-03-29T00:04:13.969Z,74.71
2019-03-29T00:06:06.908Z,74.61
2019-03-29T00:07:07.087Z,75.18
2019-03-29T00:08:59.797Z,74.80
2019-03-29T00:09:59.803Z,74.80
2019-03-29T00:11:52.710Z,74.67
2019-03-29T00:12:52.722Z,75.37
2019-03-29T00:14:45.633Z,74.71
2019-03-29T00:15:45.644Z,74.61
2019-03-29T00:17:38.553Z,75.28
2019-03-29T00:18:38.557Z,74.61
2019-03-29T00:20:31.465Z,74.42
2019-03-29T00:21:31.478Z,74.71
2019-03-29T00:23:24.390Z,75.18
2019-03-29T00:24:24.397Z,74.10
2019-03-29T00:26:17.297Z,74.23
2019-03-29T00:27:17.308Z,74.32
2019-03-29T00:29:10.362Z,74.67
2019-03-29T00:30:10.224Z,74.52
2019-03-29T00:32:03.140Z,74.32
2019-03-29T00:33:03.150Z,74.32
2019-03-29T00:34:56.050Z,73.66
2019-03-29T00:35:56.058Z,73.47
2019-03-29T00:37:53.868Z,72.89
2019-03-29T00:38:49.014Z,72.57
2019-03-29T00:40:41.876Z,72.76
2019-03-29T00:41:41.888Z,72.19
2019-03-29T00:43:34.954Z,72.48
2019-03-29T00:44:34.804Z,72.19
2019-03-29T00:46:27.706Z,72.28
2019-03-29T00:47:27.722Z,72.76
2019-03-29T00:49:20.627Z,72.48
2019-03-29T00:50:20.633Z,72.86
2019-03-29T00:52:13.535Z,73.14
2019-03-29T00:53:13.547Z,72.86
2019-03-29T00:55:06.459Z,73.62
2019-03-29T00:56:06.460Z,73.87
2019-03-29T00:57:59.374Z,73.77
2019-03-29T00:58:59.378Z,74.25
2019-03-29T01:00:52.277Z,74.35
2019-03-29T01:01:52.343Z,74.63
2019-03-29T01:03:45.212Z,74.63
2019-03-29T01:04:45.200Z,74.73
2019-03-29T01:06:39.070Z,75.30
2019-03-29T01:07:38.112Z,75.01
2019-03-29T01:09:31.092Z,75.26
2019-03-29T01:10:31.026Z,75.93
2019-03-29T01:12:23.927Z,75.74
2019-03-29T01:13:24.241Z,75.93
2019-03-29T01:15:16.848Z,75.84
2019-03-29T01:16:16.852Z,76.12
2019-03-29T01:18:09.762Z,76.03
2019-03-29T01:19:09.763Z,76.31
2019-03-29T01:21:02.667Z,76.69
2019-03-29T01:22:02.677Z,76.50
2019-03-29T01:23:55.582Z,77.17
2019-03-29T01:24:55.594Z,77.07
2019-03-29T01:26:48.492Z,77.70
2019-03-29T01:27:48.522Z,77.42
2019-03-29T01:29:41.416Z,77.70
2019-03-29T01:30:41.419Z,77.89
2019-03-29T01:32:34.603Z,78.37
2019-03-29T01:33:34.332Z,78.46
2019-03-29T01:35:27.725Z,79.22
2019-03-29T01:36:28.074Z,79.22
2019-03-29T01:38:22.327Z,79.41
2019-03-29T01:39:20.647Z,79.22
2019-03-29T01:41:13.681Z,80.13
2019-03-29T01:42:13.692Z,80.23
2019-03-29T01:44:06.602Z,80.42
2019-03-29T01:45:06.605Z,80.71
2019-03-29T01:46:59.507Z,81.28
2019-03-29T01:47:59.517Z,81.28
2019-03-29T01:49:52.427Z,81.09
2019-03-29T01:50:52.434Z,81.47
2019-03-29T01:52:45.993Z,81.95
2019-03-29T01:53:45.341Z,81.76
2019-03-29T01:55:38.246Z,82.14
2019-03-29T01:56:38.250Z,82.23
2019-03-29T01:58:31.157Z,82.32
2019-03-29T01:59:31.162Z,82.14
2019-03-29T02:01:24.063Z,82.32
2019-03-29T02:02:24.071Z,82.90
2019-03-29T02:04:16.986Z,82.70
2019-03-29T02:05:16.980Z,82.48
2019-03-29T02:07:09.878Z,82.76
2019-03-29T02:08:09.890Z,82.67
2019-03-29T02:10:02.796Z,83.04
2019-03-29T02:11:02.801Z,83.14
2019-03-29T02:12:55.702Z,83.81
2019-03-29T02:13:55.715Z,83.81
2019-03-29T02:15:48.647Z,83.52
2019-03-29T02:16:48.623Z,83.71
2019-03-29T02:18:41.533Z,84.19
2019-03-29T02:19:41.534Z,83.90
2019-03-29T02:21:34.438Z,84.09
2019-03-29T02:22:34.446Z,84.00
2019-03-29T02:24:27.351Z,84.19
2019-03-29T02:25:27.354Z,84.19
2019-03-29T02:27:20.255Z,84.47
2019-03-29T02:28:20.264Z,84.76
2019-03-29T02:30:13.172Z,85.24
2019-03-29T02:31:13.179Z,85.38
2019-03-29T02:33:06.074Z,85.42
2019-03-29T02:34:06.086Z,85.19
2019-03-29T02:35:58.988Z,85.28
2019-03-29T02:36:58.993Z,85.10
2019-03-29T02:38:55.695Z,85.38
2019-03-29T02:39:51.905Z,85.47
2019-03-29T02:41:46.703Z,85.38
2019-03-29T02:42:44.809Z,85.19
2019-03-29T02:44:37.714Z,86.24
2019-03-29T02:45:37.719Z,86.61
2019-03-29T02:47:30.619Z,87.28
2019-03-29T02:48:30.629Z,87.19
2019-03-29T02:50:23.536Z,86.90
2019-03-29T02:51:23.540Z,87.95
2019-03-29T02:53:16.440Z,88.42
2019-03-29T02:54:16.449Z,88.33
2019-03-29T02:56:09.358Z,88.23
2019-03-29T02:57:09.358Z,88.23
2019-03-29T02:59:02.261Z,88.13
2019-03-29T03:00:02.270Z,88.33
2019-03-29T03:01:55.164Z,88.42
2019-03-29T03:02:55.336Z,88.23
2019-03-29T03:04:48.077Z,88.90
2019-03-29T03:05:48.086Z,88.71
2019-03-29T03:07:40.982Z,88.67
2019-03-29T03:08:40.989Z,88.47
2019-03-29T03:10:33.894Z,88.47
2019-03-29T03:11:33.898Z,88.57
2019-03-29T03:13:26.797Z,88.76
2019-03-29T03:14:26.817Z,89.33
2019-03-29T03:16:19.722Z,89.23
2019-03-29T03:17:19.714Z,89.33
2019-03-29T03:19:12.622Z,89.61
2019-03-29T03:20:15.488Z,89.42
2019-03-29T03:22:05.525Z,89.42
2019-03-29T03:23:05.533Z,89.52
2019-03-29T03:24:58.436Z,89.23
2019-03-29T03:25:58.441Z,89.14
2019-03-29T03:27:51.334Z,89.14
2019-03-29T03:28:51.346Z,89.52
2019-03-29T03:30:44.252Z,89.14
2019-03-29T03:31:44.306Z,89.52
2019-03-29T03:33:37.149Z,89.04
2019-03-29T03:34:37.158Z,89.33
2019-03-29T03:36:30.065Z,89.23
2019-03-29T03:37:30.066Z,89.04
2019-03-29T03:39:31.656Z,88.95
2019-03-29T03:40:22.975Z,89.14
2019-03-29T03:42:15.870Z,89.52
2019-03-29T03:43:15.880Z,89.52
2019-03-29T03:45:08.787Z,89.52
2019-03-29T03:46:08.791Z,89.61
2019-03-29T03:48:01.687Z,89.33
2019-03-29T03:49:01.706Z,88.95
2019-03-29T03:50:54.608Z,88.47
2019-03-29T03:51:54.604Z,88.57
2019-03-29T03:53:47.501Z,88.57
2019-03-29T03:54:47.512Z,88.67
2019-03-29T03:56:40.415Z,89.00
2019-03-29T03:57:40.419Z,88.71
2019-03-29T03:59:33.315Z,88.81
2019-03-29T04:00:33.332Z,88.81
2019-03-29T04:02:26.230Z,88.81
2019-03-29T04:03:26.234Z,89.00
2019-03-29T04:05:19.139Z,88.62
2019-03-29T04:06:19.141Z,89.00
2019-03-29T04:08:12.041Z,89.09
2019-03-29T04:09:12.052Z,89.47
2019-03-29T04:11:05.008Z,89.28
2019-03-29T04:12:04.955Z,89.76
2019-03-29T04:13:57.853Z,90.23
2019-03-29T04:14:57.867Z,89.95
2019-03-29T04:16:50.766Z,90.14
2019-03-29T04:17:50.767Z,90.05
2019-03-29T04:19:44.169Z,90.23
2019-03-29T04:20:44.186Z,90.52
2019-03-29T04:22:37.069Z,90.71
2019-03-29T04:23:37.082Z,90.71
2019-03-29T04:25:29.986Z,91.09
2019-03-29T04:26:29.985Z,90.14
2019-03-29T04:28:22.884Z,90.52
2019-03-29T04:29:22.889Z,90.61
2019-03-29T04:31:16.290Z,90.23
2019-03-29T04:32:16.294Z,90.61
2019-03-29T04:34:09.190Z,90.52
2019-03-29T04:35:09.201Z,90.71
2019-03-29T04:37:02.104Z,90.52
2019-03-29T04:38:02.110Z,90.42
2019-03-29T04:40:06.811Z,90.23
2019-03-29T04:40:55.014Z,90.61
2019-03-29T04:42:47.911Z,90.71
2019-03-29T04:43:47.920Z,90.42
2019-03-29T04:45:40.825Z,90.42
2019-03-29T04:46:40.828Z,90.61
2019-03-29T04:48:33.723Z,90.52
2019-03-29T04:49:33.734Z,90.42
2019-03-29T04:51:26.638Z,90.42
2019-03-29T04:52:26.639Z,90.61
2019-03-29T04:54:19.537Z,90.52
2019-03-29T04:55:19.548Z,90.61
2019-03-29T04:57:12.449Z,90.61
2019-03-29T04:58:12.450Z,91.09
2019-03-29T05:00:05.354Z,90.80
2019-03-29T05:01:05.357Z,90.80
2019-03-29T05:02:58.256Z,90.33
2019-03-29T05:03:58.265Z,90.42
2019-03-29T05:05:51.170Z,90.66
2019-03-29T05:06:51.171Z,90.38
2019-03-29T05:08:44.101Z,90.42
2019-03-29T05:09:44.083Z,90.19
2019-03-29T05:11:36.983Z,90.38
2019-03-29T05:12:36.985Z,90.57
2019-03-29T05:14:29.895Z,90.57
2019-03-29T05:15:29.898Z,90.66
2019-03-29T05:17:22.800Z,91.24
2019-03-29T05:18:22.804Z,91.04
2019-03-29T05:20:15.708Z,91.14
2019-03-29T05:21:15.708Z,91.42
2019-03-29T05:23:08.604Z,91.71
2019-03-29T05:24:08.615Z,91.71
2019-03-29T05:26:01.517Z,91.42
2019-03-29T05:27:01.530Z,91.42
2019-03-29T05:28:54.419Z,91.52
2019-03-29T05:29:54.426Z,91.14
2019-03-29T05:31:47.333Z,90.99
2019-03-29T05:32:47.335Z,90.80
2019-03-29T05:34:40.233Z,90.95
2019-03-29T05:35:40.243Z,91.09
2019-03-29T05:37:33.150Z,90.99
2019-03-29T05:38:33.149Z,91.38
2019-03-29T05:40:34.663Z,91.19
2019-03-29T05:41:26.054Z,91.09
2019-03-29T05:43:18.948Z,91.09
2019-03-29T05:44:18.957Z,90.90
2019-03-29T05:46:11.863Z,90.14
2019-03-29T05:47:11.866Z,90.33
2019-03-29T05:49:04.770Z,90.61
2019-03-29T05:50:04.772Z,90.33
2019-03-29T05:51:57.677Z,91.09
2019-03-29T05:52:57.676Z,91.47
2019-03-29T05:54:50.580Z,90.23
2019-03-29T05:55:50.581Z,90.71
2019-03-29T05:57:43.979Z,90.42
2019-03-29T05:58:43.986Z,90.42
2019-03-29T06:00:36.886Z,90.52
2019-03-29T06:01:36.889Z,90.61
2019-03-29T06:03:29.789Z,90.61
2019-03-29T06:04:29.797Z,91.13
2019-03-29T06:06:22.869Z,91.71
2019-03-29T06:07:22.873Z,91.71
2019-03-29T06:09:15.773Z,92.51
2019-03-29T06:10:15.780Z,92.22
2019-03-29T06:12:08.685Z,91.99
2019-03-29T06:13:08.688Z,91.32
2019-03-29T06:15:01.588Z,90.42
2019-03-29T06:16:01.601Z,89.65
2019-03-29T06:17:54.503Z,85.89
2019-03-29T06:18:54.506Z,84.12
2019-03-29T06:20:47.409Z,80.49
2019-03-29T06:21:47.413Z,79.28
2019-03-29T06:23:40.320Z,75.93
2019-03-29T06:24:40.325Z,74.05
2019-03-29T06:26:33.236Z,70.97
2019-03-29T06:27:33.240Z,69.00
2019-03-29T06:29:26.152Z,63.42
2019-03-29T06:30:26.157Z,60.93
2019-03-29T06:32:19.068Z,58.84
2019-03-29T06:33:19.075Z,58.75
2019-03-29T06:35:11.978Z,58.27
2019-03-29T06:36:11.989Z,58.84
2019-03-29T06:38:04.902Z,57.98
2019-03-29T06:39:04.909Z,58.34
2019-03-29T06:41:03.309Z,57.95
2019-03-29T06:41:57.825Z,57.86
2019-03-29T06:43:50.731Z,58.24
2019-03-29T06:44:50.742Z,58.24
2019-03-29T06:46:43.661Z,58.37
2019-03-29T06:47:43.667Z,58.86
2019-03-29T06:49:36.576Z,60.26
2019-03-29T06:50:36.609Z,61.28
2019-03-29T06:52:29.501Z,62.49
2019-03-29T06:53:29.506Z,64.22
2019-03-29T06:55:22.409Z,65.14
2019-03-29T06:56:22.423Z,66.00
2019-03-29T06:58:15.335Z,66.92
2019-03-29T06:59:15.342Z,67.68
2019-03-29T07:01:08.267Z,67.97
2019-03-29T07:02:08.270Z,68.70
2019-03-29T07:04:01.167Z,70.70
2019-03-29T07:05:01.179Z,70.79
2019-03-29T07:06:54.092Z,71.66
2019-03-29T07:07:54.096Z,72.03
2019-03-29T07:09:46.999Z,72.89
2019-03-29T07:10:47.012Z,72.96
2019-03-29T07:12:39.921Z,74.10
2019-03-29T07:13:39.928Z,74.19
2019-03-29T07:15:32.832Z,74.38
2019-03-29T07:16:32.843Z,74.35
2019-03-29T07:18:25.759Z,75.01
2019-03-29T07:19:25.762Z,75.20
2019-03-29T07:21:21.725Z,76.25
2019-03-29T07:22:18.678Z,76.35
2019-03-29T07:24:11.586Z,77.01
2019-03-29T07:25:11.595Z,76.39
2019-03-29T07:27:04.510Z,76.67
2019-03-29T07:28:04.509Z,76.67
2019-03-29T07:29:57.429Z,76.10
2019-03-29T07:30:57.427Z,75.62
2019-03-29T07:32:50.337Z,75.18
2019-03-29T07:33:50.345Z,74.38
2019-03-29T07:35:43.247Z,74.71
2019-03-29T07:36:43.264Z,74.86
2019-03-29T07:38:36.170Z,75.76
2019-03-29T07:39:36.177Z,75.28
2019-03-29T07:41:32.000Z,74.80
2019-03-29T07:42:29.588Z,75.18
2019-03-29T07:44:22.494Z,75.76
2019-03-29T07:45:22.505Z,74.61
2019-03-29T07:47:15.415Z,73.18
2019-03-29T07:48:15.421Z,73.28
2019-03-29T07:50:08.327Z,73.37
2019-03-29T07:51:08.337Z,73.37
2019-03-29T07:53:01.251Z,73.88
2019-03-29T07:54:01.257Z,73.79
2019-03-29T07:55:54.163Z,73.32
2019-03-29T07:56:54.174Z,72.64
2019-03-29T07:58:47.088Z,72.61
2019-03-29T07:59:47.092Z,72.99
2019-03-29T08:01:40.006Z,73.32
2019-03-29T08:02:40.012Z,73.22
2019-03-29T08:04:32.919Z,73.88
2019-03-29T08:05:35.346Z,73.88
2019-03-29T08:07:27.544Z,73.88
2019-03-29T08:08:32.031Z,74.27
2019-03-29T08:10:25.822Z,73.79
2019-03-29T08:11:25.970Z,73.98
2019-03-29T08:13:11.690Z,72.87
2019-03-29T08:14:14.811Z,72.68
2019-03-29T08:16:06.663Z,72.49
2019-03-29T08:17:04.600Z,71.06
2019-03-29T08:18:57.510Z,71.31
2019-03-29T08:20:35.559Z,71.41
2019-03-29T08:21:50.924Z,72.39
2019-03-29T08:22:50.929Z,72.78
2019-03-29T08:24:43.843Z,72.87
2019-03-29T08:25:43.846Z,72.78
2019-03-29T08:27:36.760Z,72.87
2019-03-29T08:28:36.767Z,72.11
2019-03-29T08:30:29.672Z,71.38
2019-03-29T08:31:29.683Z,71.47
2019-03-29T08:33:22.597Z,70.67
2019-03-29T08:34:22.603Z,70.61
2019-03-29T08:36:15.509Z,69.24
2019-03-29T08:37:15.595Z,69.24
2019-03-29T08:39:10.151Z,70.01
2019-03-29T08:40:08.445Z,70.20
2019-03-29T08:42:01.356Z,71.06
2019-03-29T08:43:01.362Z,70.77
2019-03-29T08:44:54.766Z,71.82
2019-03-29T08:45:57.404Z,71.25
2019-03-29T08:47:47.688Z,70.61
2019-03-29T08:48:47.694Z,70.71
2019-03-29T08:50:40.600Z,70.67
2019-03-29T08:51:41.593Z,70.71
2019-03-29T08:53:33.525Z,70.71
2019-03-29T08:54:33.532Z,70.81
2019-03-29T08:56:26.438Z,71.00
2019-03-29T08:57:26.450Z,71.09
2019-03-29T08:59:19.363Z,71.22
2019-03-29T09:00:19.370Z,70.75
2019-03-29T09:02:12.292Z,70.07
2019-03-29T09:03:12.288Z,69.50
2019-03-29T09:05:05.193Z,69.12
2019-03-29T09:06:05.207Z,69.21
2019-03-29T09:07:58.118Z,69.12
2019-03-29T09:08:58.127Z,69.50
2019-03-29T09:10:51.034Z,69.70
2019-03-29T09:11:51.044Z,70.07
2019-03-29T09:13:43.957Z,68.45
2019-03-29T09:14:43.964Z,68.55
2019-03-29T09:16:36.871Z,68.74
2019-03-29T09:17:36.886Z,68.77
2019-03-29T09:19:29.797Z,69.15
2019-03-29T09:20:29.802Z,69.35
2019-03-29T09:22:22.727Z,69.15
2019-03-29T09:23:22.741Z,69.06
2019-03-29T09:25:15.633Z,68.58
2019-03-29T09:26:15.646Z,68.52
2019-03-29T09:28:08.562Z,67.85
2019-03-29T09:29:08.567Z,67.76
2019-03-29T09:31:01.477Z,67.08
2019-03-29T09:32:01.499Z,66.89
2019-03-29T09:33:54.406Z,65.17
2019-03-29T09:34:54.409Z,65.55
2019-03-29T09:36:47.318Z,65.36
2019-03-29T09:37:47.332Z,66.32
2019-03-29T09:39:40.247Z,66.61
2019-03-29T09:40:40.255Z,66.32
2019-03-29T09:42:33.171Z,66.45
2019-03-29T09:43:33.197Z,66.25
2019-03-29T09:45:26.085Z,66.06
2019-03-29T09:46:26.101Z,65.97
2019-03-29T09:48:20.508Z,64.15
2019-03-29T09:49:20.514Z,64.43
2019-03-29T09:51:13.429Z,65.39
2019-03-29T09:52:13.438Z,64.92
2019-03-29T09:54:06.360Z,63.76
2019-03-29T09:55:06.361Z,63.48
2019-03-29T09:56:59.273Z,64.63
2019-03-29T09:57:59.286Z,63.76
2019-03-29T09:59:52.201Z,63.39
2019-03-29T10:00:52.208Z,63.19
2019-03-29T10:02:45.120Z,62.90
2019-03-29T10:03:45.131Z,63.00
2019-03-29T10:05:38.049Z,64.25
2019-03-29T10:06:38.060Z,63.39
2019-03-29T10:08:30.972Z,64.15
2019-03-29T10:09:30.977Z,63.39
2019-03-29T10:11:23.888Z,63.00
2019-03-29T10:12:23.903Z,62.52
2019-03-29T10:14:16.820Z,63.29
2019-03-29T10:15:16.837Z,63.29
2019-03-29T10:17:09.734Z,63.60
2019-03-29T10:18:09.748Z,63.51
2019-03-29T10:20:02.663Z,62.26
2019-03-29T10:21:02.668Z,62.84
2019-03-29T10:22:55.579Z,62.93
2019-03-29T10:23:55.593Z,63.42
2019-03-29T10:25:48.514Z,61.21
2019-03-29T10:26:48.519Z,60.35
2019-03-29T10:28:41.441Z,60.06
2019-03-29T10:29:41.444Z,61.50
2019-03-29T10:31:34.353Z,61.79
2019-03-29T10:32:34.367Z,61.50
2019-03-29T10:34:27.284Z,61.40
2019-03-29T10:35:27.293Z,61.24
2019-03-29T10:37:20.206Z,61.11
2019-03-29T10:38:20.217Z,60.47
2019-03-29T10:40:13.134Z,58.62
2019-03-29T10:41:13.143Z,59.87
2019-03-29T10:43:06.061Z,60.83
2019-03-29T10:44:06.067Z,60.83
2019-03-29T10:45:58.985Z,60.44
2019-03-29T10:46:58.991Z,59.77
2019-03-29T10:48:51.908Z,59.87
2019-03-29T10:49:51.924Z,59.90
2019-03-29T10:51:44.826Z,60.28
2019-03-29T10:52:44.843Z,60.38
2019-03-29T10:54:37.761Z,60.96
2019-03-29T10:55:37.766Z,60.28
2019-03-29T10:57:30.678Z,59.13
2019-03-29T10:58:30.690Z,57.41
2019-03-29T11:00:23.605Z,58.75
2019-03-29T11:01:24.807Z,58.94
2019-03-29T11:03:16.555Z,59.26
2019-03-29T11:04:16.544Z,58.01
2019-03-29T11:06:09.455Z,58.39
2019-03-29T11:07:09.469Z,59.06
2019-03-29T11:09:02.387Z,59.55
2019-03-29T11:10:02.405Z,58.87
2019-03-29T11:11:55.309Z,57.82
2019-03-29T11:12:55.323Z,57.53
2019-03-29T11:14:48.241Z,57.92
2019-03-29T11:15:48.250Z,57.03
2019-03-29T11:17:41.174Z,58.78
2019-03-29T11:18:41.176Z,59.45
2019-03-29T11:20:34.094Z,59.06
2019-03-29T11:21:34.105Z,58.87
2019-03-29T11:23:27.298Z,58.78
2019-03-29T11:24:27.030Z,58.30
2019-03-29T11:26:20.081Z,58.20
2019-03-29T11:27:22.448Z,58.69
2019-03-29T11:29:13.016Z,57.65
2019-03-29T11:30:13.022Z,56.60
2019-03-29T11:32:05.939Z,56.51
2019-03-29T11:33:05.993Z,57.56
2019-03-29T11:34:58.864Z,57.28
2019-03-29T11:35:58.877Z,57.85
2019-03-29T11:37:51.785Z,58.52
2019-03-29T11:38:51.800Z,58.33
2019-03-29T11:40:44.715Z,57.37
2019-03-29T11:41:44.725Z,56.98
2019-03-29T11:43:37.634Z,56.12
2019-03-29T11:44:37.651Z,55.64
2019-03-29T11:46:30.564Z,55.80
2019-03-29T11:47:30.574Z,56.38
2019-03-29T11:49:23.490Z,58.01
2019-03-29T11:50:23.501Z,59.26
2019-03-29T11:52:16.407Z,58.91
2019-03-29T11:53:16.423Z,58.91
2019-03-29T11:55:09.339Z,57.85
2019-03-29T11:56:09.349Z,56.70
2019-03-29T11:58:02.265Z,55.55
2019-03-29T11:59:02.276Z,55.74
2019-03-29T12:00:55.191Z,56.60
2019-03-29T12:01:55.200Z,56.60
2019-03-29T12:03:48.109Z,57.08
2019-03-29T12:04:48.126Z,56.02
2019-03-29T12:06:41.041Z,56.51
2019-03-29T12:07:41.049Z,56.70
2019-03-29T12:09:33.968Z,56.63
2019-03-29T12:10:33.981Z,56.24
2019-03-29T12:12:27.680Z,56.05
2019-03-29T12:13:35.032Z,55.57
2019-03-29T12:15:19.822Z,55.77
2019-03-29T12:16:19.833Z,55.86
2019-03-29T12:18:12.743Z,55.96
2019-03-29T12:19:12.760Z,56.05
2019-03-29T12:21:05.682Z,56.05
2019-03-29T12:22:05.686Z,55.47
2019-03-29T12:23:59.090Z,55.89
2019-03-29T12:24:59.108Z,55.32
2019-03-29T12:26:54.894Z,55.41
2019-03-29T12:27:52.034Z,54.74
2019-03-29T12:29:44.951Z,54.06
2019-03-29T12:30:44.962Z,54.06
2019-03-29T12:32:37.872Z,55.57
2019-03-29T12:33:37.892Z,55.41
2019-03-29T12:35:30.811Z,55.89
2019-03-29T12:36:30.818Z,55.60
2019-03-29T12:38:23.725Z,54.45
2019-03-29T12:39:23.743Z,53.49
2019-03-29T12:41:16.663Z,52.69
2019-03-29T12:42:16.669Z,52.89
2019-03-29T12:44:09.621Z,54.42
2019-03-29T12:45:09.596Z,54.52
2019-03-29T12:47:02.514Z,54.93
2019-03-29T12:48:02.520Z,55.89
2019-03-29T12:49:55.439Z,55.12
2019-03-29T12:50:55.448Z,55.22
2019-03-29T12:52:48.367Z,55.22
2019-03-29T12:53:48.377Z,53.58
2019-03-29T12:55:41.292Z,53.39
2019-03-29T12:56:41.360Z,52.24
2019-03-29T12:58:34.213Z,52.81
2019-03-29T12:59:34.233Z,53.49
2019-03-29T13:01:38.476Z,53.58
2019-03-29T13:02:27.165Z,53.78
2019-03-29T13:04:20.076Z,53.97
2019-03-29T13:05:20.093Z,53.90
2019-03-29T13:07:13.013Z,53.42
2019-03-29T13:08:13.019Z,52.84
2019-03-29T13:10:05.974Z,52.14
2019-03-29T13:11:05.945Z,52.24
2019-03-29T13:13:00.521Z,53.39
2019-03-29T13:14:09.439Z,54.74
2019-03-29T13:15:51.795Z,54.25
2019-03-29T13:16:51.805Z,53.87
2019-03-29T13:18:44.716Z,53.39
2019-03-29T13:19:44.732Z,54.55
2019-03-29T13:21:38.974Z,54.83
2019-03-29T13:22:37.661Z,54.06
2019-03-29T13:24:30.573Z,53.58
2019-03-29T13:25:30.591Z,53.03
2019-03-29T13:27:23.509Z,54.09
2019-03-29T13:28:23.518Z,53.90
2019-03-29T13:30:17.299Z,53.90
2019-03-29T13:31:16.445Z,53.70
2019-03-29T13:33:09.356Z,53.80
2019-03-29T13:34:09.371Z,53.32
2019-03-29T13:36:02.298Z,52.94
2019-03-29T13:37:02.301Z,53.52
2019-03-29T13:38:55.210Z,53.03
2019-03-29T13:39:55.229Z,53.13
2019-03-29T13:41:48.146Z,53.32
2019-03-29T13:42:48.158Z,53.23
2019-03-29T13:44:41.070Z,53.64
2019-03-29T13:45:41.087Z,52.87
2019-03-29T13:47:34.090Z,52.94
2019-03-29T13:48:34.017Z,52.75
2019-03-29T13:50:26.934Z,53.80
2019-03-29T13:51:26.949Z,53.52
2019-03-29T13:53:19.858Z,53.11
2019-03-29T13:54:19.872Z,53.52
2019-03-29T13:56:12.793Z,54.96
2019-03-29T13:57:12.801Z,54.86
2019-03-29T13:59:05.777Z,54.77
2019-03-29T14:00:05.732Z,54.47
2019-03-29T14:01:59.646Z,54.47
2019-03-29T14:02:59.657Z,54.28
2019-03-29T14:04:52.570Z,53.92
2019-03-29T14:05:52.587Z,53.06
2019-03-29T14:07:45.509Z,52.77
2019-03-29T14:08:45.516Z,53.35
2019-03-29T14:10:38.441Z,53.06
2019-03-29T14:11:38.449Z,52.39
2019-03-29T14:13:31.853Z,52.36
2019-03-29T14:14:38.122Z,52.39
2019-03-29T14:16:24.790Z,52.00
2019-03-29T14:17:24.802Z,51.81
2019-03-29T14:19:17.711Z,52.48
2019-03-29T14:20:17.730Z,52.77
2019-03-29T14:22:10.651Z,52.29
2019-03-29T14:23:10.659Z,51.91
2019-03-29T14:25:03.574Z,51.59
2019-03-29T14:26:03.596Z,52.55
2019-03-29T14:27:56.594Z,53.03
2019-03-29T14:28:56.519Z,52.84
2019-03-29T14:30:49.441Z,52.94
2019-03-29T14:31:49.526Z,52.94
2019-03-29T14:33:42.384Z,53.03
2019-03-29T14:34:42.396Z,53.23
2019-03-29T14:36:35.312Z,53.42
2019-03-29T14:37:35.319Z,52.87
2019-03-29T14:39:28.232Z,52.97
2019-03-29T14:40:28.247Z,52.97
2019-03-29T14:42:21.164Z,52.48
2019-03-29T14:43:21.177Z,52.29
2019-03-29T14:45:14.091Z,52.68
2019-03-29T14:46:14.287Z,53.16
2019-03-29T14:48:07.527Z,52.10
2019-03-29T14:49:07.648Z,52.58
2019-03-29T14:51:00.797Z,52.70
2019-03-29T14:52:00.459Z,52.20
2019-03-29T14:53:53.370Z,51.23
2019-03-29T14:54:53.387Z,51.62
2019-03-29T14:56:46.313Z,50.56
2019-03-29T14:57:46.321Z,50.95
2019-03-29T14:59:39.230Z,52.20
2019-03-29T15:00:39.246Z,52.58
2019-03-29T15:02:32.167Z,52.48
2019-03-29T15:03:32.178Z,52.77
2019-03-29T15:05:25.092Z,52.48
2019-03-29T15:06:25.111Z,52.08
2019-03-29T15:08:18.033Z,52.55
2019-03-29T15:09:18.037Z,52.84
2019-03-29T15:11:21.697Z,52.75
2019-03-29T15:12:10.967Z,52.17
2019-03-29T15:14:03.887Z,53.03
2019-03-29T15:15:06.277Z,53.70
2019-03-29T15:16:56.820Z,54.57
2019-03-29T15:17:56.830Z,54.09
2019-03-29T15:19:49.742Z,52.87
2019-03-29T15:20:53.843Z,53.06
2019-03-29T15:22:42.679Z,53.06
2019-03-29T15:23:42.691Z,53.06
2019-03-29T15:25:35.604Z,52.87
2019-03-29T15:26:35.619Z,52.58
2019-03-29T15:28:28.561Z,52.20
2019-03-29T15:29:28.552Z,52.39
2019-03-29T15:31:21.472Z,52.58
2019-03-29T15:32:21.481Z,52.77
2019-03-29T15:34:14.397Z,52.94
2019-03-29T15:35:14.414Z,53.03
2019-03-29T15:37:09.875Z,53.35
2019-03-29T15:38:07.346Z,53.74
2019-03-29T15:40:00.489Z,53.03
2019-03-29T15:41:00.277Z,52.17
2019-03-29T15:42:53.201Z,52.75
2019-03-29T15:43:53.213Z,53.03
2019-03-29T15:45:46.124Z,53.23
2019-03-29T15:46:46.143Z,53.13
2019-03-29T15:48:39.151Z,52.75
2019-03-29T15:49:39.080Z,52.46
2019-03-29T15:51:32.068Z,52.94
2019-03-29T15:52:32.036Z,52.94
2019-03-29T15:54:24.948Z,52.94
2019-03-29T15:55:24.953Z,52.84
2019-03-29T15:57:17.922Z,53.61
2019-03-29T15:58:17.904Z,53.90
2019-03-29T16:00:10.794Z,53.13
2019-03-29T16:01:10.820Z,53.23
2019-03-29T16:03:04.251Z,53.45
2019-03-29T16:04:04.241Z,53.06
2019-03-29T16:05:57.166Z,53.32
2019-03-29T16:06:57.181Z,53.35
2019-03-29T16:08:50.116Z,53.35
2019-03-29T16:09:50.117Z,51.91
2019-03-29T16:11:43.067Z,52.08
2019-03-29T16:12:43.024Z,51.88
2019-03-29T16:14:35.942Z,52.36
2019-03-29T16:15:38.347Z,52.94
2019-03-29T16:17:28.861Z,52.75
2019-03-29T16:18:28.872Z,52.75
2019-03-29T16:20:21.787Z,53.30
2019-03-29T16:21:21.804Z,53.11
2019-03-29T16:23:14.817Z,52.94
2019-03-29T16:24:14.774Z,53.39
2019-03-29T16:26:08.141Z,53.42
2019-03-29T16:27:08.156Z,53.11
2019-03-29T16:29:01.075Z,53.42
2019-03-29T16:30:01.090Z,53.80
2019-03-29T16:31:54.006Z,54.00
2019-03-29T16:32:54.012Z,53.61
2019-03-29T16:34:46.926Z,52.91
2019-03-29T16:35:46.942Z,53.49
2019-03-29T16:37:39.912Z,53.58
2019-03-29T16:38:39.873Z,54.16
2019-03-29T16:40:32.784Z,53.97
2019-03-29T16:41:32.802Z,54.16
2019-03-29T16:43:25.720Z,53.87
2019-03-29T16:44:25.728Z,53.97
2019-03-29T16:46:18.641Z,54.55
2019-03-29T16:47:18.655Z,54.64
2019-03-29T16:49:11.587Z,54.64
2019-03-29T16:50:11.584Z,54.35
2019-03-29T16:52:04.502Z,54.25
2019-03-29T16:53:04.511Z,54.83
2019-03-29T16:54:57.421Z,54.16
2019-03-29T16:55:57.435Z,53.87
2019-03-29T16:57:50.848Z,55.02
2019-03-29T16:58:50.857Z,55.32
2019-03-29T17:00:43.771Z,55.19
2019-03-29T17:01:43.788Z,55.19
2019-03-29T17:03:36.705Z,55.96
2019-03-29T17:04:36.823Z,55.47
2019-03-29T17:06:29.623Z,55.86
2019-03-29T17:07:29.641Z,55.67
2019-03-29T17:09:22.559Z,56.05
2019-03-29T17:10:22.568Z,55.86
2019-03-29T17:12:15.567Z,56.15
2019-03-29T17:13:15.587Z,56.24
2019-03-29T17:15:08.493Z,55.96
2019-03-29T17:16:08.507Z,56.15
2019-03-29T17:18:01.423Z,55.86
2019-03-29T17:19:01.435Z,56.24
2019-03-29T17:20:54.527Z,57.01
2019-03-29T17:21:54.371Z,56.24
2019-03-29T17:23:47.290Z,56.92
2019-03-29T17:24:56.784Z,57.08
2019-03-29T17:26:40.212Z,57.37
2019-03-29T17:27:40.220Z,57.46
2019-03-29T17:29:33.142Z,57.65
2019-03-29T17:30:33.148Z,57.85
2019-03-29T17:32:26.083Z,58.04
2019-03-29T17:33:26.069Z,58.04
2019-03-29T17:35:18.985Z,58.14
2019-03-29T17:36:18.997Z,58.42
2019-03-29T17:38:11.917Z,58.87
2019-03-29T17:39:11.927Z,58.97
2019-03-29T17:41:04.835Z,59.16
2019-03-29T17:42:04.852Z,59.36
2019-03-29T17:43:57.767Z,59.16
2019-03-29T17:44:59.158Z,59.36
2019-03-29T17:46:50.687Z,59.26
2019-03-29T17:47:50.700Z,60.03
2019-03-29T17:49:43.615Z,60.03
2019-03-29T17:50:43.623Z,59.36
2019-03-29T17:52:36.548Z,59.90
2019-03-29T17:53:36.550Z,60.00
2019-03-29T17:55:31.768Z,60.19
2019-03-29T17:56:29.481Z,60.28
2019-03-29T17:58:22.417Z,61.05
2019-03-29T17:59:22.421Z,60.67
2019-03-29T18:01:15.326Z,60.67
2019-03-29T18:02:15.340Z,60.86
2019-03-29T18:04:08.258Z,61.79
2019-03-29T18:05:08.267Z,61.21
2019-03-29T18:07:01.174Z,61.69
2019-03-29T18:08:01.195Z,61.88
2019-03-29T18:09:54.104Z,62.84
2019-03-29T18:10:54.112Z,62.55
2019-03-29T18:12:47.026Z,62.84
2019-03-29T18:13:47.035Z,63.13
2019-03-29T18:15:39.942Z,63.89
2019-03-29T18:16:39.959Z,63.67
2019-03-29T18:18:32.878Z,63.48
2019-03-29T18:19:32.879Z,63.86
2019-03-29T18:21:25.785Z,64.05
2019-03-29T18:22:25.799Z,64.05
2019-03-29T18:24:18.717Z,64.25
2019-03-29T18:25:18.720Z,64.31
2019-03-29T18:27:11.640Z,64.79
2019-03-29T18:28:11.643Z,64.59
2019-03-29T18:30:04.557Z,65.08
2019-03-29T18:31:04.566Z,65.08
2019-03-29T18:32:57.484Z,65.74